Weather at Cincinnati Northern Kentucky International Airport

Public forecast

Using degrees Fahrenheit for public forecast. Weather courtesy of forecast.io.

Current aviation weather report (METAR) for Cincinnati Northern Kentucky International Airport

Retrieved 2020/09/22 17:52 UTC (11 minutes ago):

KCVG 221752Z VRB03KT 10SM FEW050 FEW180 BKN300 23/06 A3023 RMK AO2 SLP230 T02280056 10228 20094 58021

Aviation forecast (TAF) for Cincinnati Northern Kentucky International Airport

Retrieved 2020/09/22 18:45 UTC (0 seconds ago):

TAF KCVG 221741Z 2218/2324 VRB03KT P6SM SCT050 BKN250